Agios Nikolaos IV — 9HA2380 — position and weather

sailwx.info

Track history (hours):
 
Tides and Currents Weather Stations Pressure Air Temp Water Temp Dewpoint Dewpoint Depression Visibility Wind Speed Wind Dir Waves Ship Positions

Agios Nikolaos IV

Last reported at 2017-Sep-19 00:17 UTC. Time now 2017-Sep-23 07:45 UTC.
Position N 35°59' W 005°27'.

Length 185 m; draft 11.3 m.

Type: Ship. MMSI: 248480000.

Date/timePositionNaut miles runAvg speedWind from/ knotsBaromVisibWave heightAir tempDewpointWater temp
2017-Sep-19 00:17N 35°59' W 005°27'310.5
2017-Sep-19 00:00N 36°00' W 005°24'5 9.8
2017-Sep-18 23:30N 36°02' W 005°18'5 9.9
2017-Sep-18 23:00N 36°04' W 005°12'20711.1
2017-Sep-18 04:21N 37°10' W 001°09'712.3
2017-Sep-18 03:50N 37°14' W 001°03'812.3
2017-Sep-18 03:12N 37°19' W 000°55'212.3
2017-Sep-18 03:00N 37°21' W 000°53'612.4
2017-Sep-18 02:30N 37°25' W 000°47'612.5
2017-Sep-18 02:00N 37°29' W 000°41'612.5
2017-Sep-18 01:30N 37°33' W 000°35'612.3
2017-Sep-18 01:00N 37°38' W 000°30'612.4
2017-Sep-18 00:30N 37°43' W 000°26'15312.3
2017-Sep-17 12:02N 39°58' E 001°09'212.5
2017-Sep-17 11:54N 39°59' E 001°10'512.6
2017-Sep-17 11:30N 40°04' E 001°13'712.6
2017-Sep-17 10:59N 40°09' E 001°17'612.7
2017-Sep-17 10:30N 40°15' E 001°20'612.7
2017-Sep-17 10:00N 40°21' E 001°24'612.6
2017-Sep-17 09:30N 40°26' E 001°27'612.6
2017-Sep-17 09:00N 40°32' E 001°30'612.6
2017-Sep-17 08:30N 40°38' E 001°34'611.1
2017-Sep-17 08:00N 40°43' E 001°36'  
2017-Sep-14 13:03N 41°06' E 001°14'0 0.0
2017-Sep-14 12:57N 41°06' E 001°14'2 3.0
2017-Sep-14 12:09N 41°04' E 001°16'0 1.3
2017-Sep-14 11:56N 41°04' E 001°16'0 0.3
2017-Sep-14 11:28N 41°05' E 001°16'0 0.0
2017-Sep-13 23:46N 41°05' E 001°16'0 0.0
2017-Sep-13 23:16N 41°05' E 001°16'0 0.0
2017-Sep-13 22:34N 41°05' E 001°16'0 0.1
2017-Sep-13 22:28N 41°05' E 001°16'0 0.0
2017-Sep-13 19:58N 41°05' E 001°16'0 0.0
2017-Sep-13 16:52N 41°05' E 001°16'0 0.0
2017-Sep-13 16:28N 41°05' E 001°16'0 0.0
2017-Sep-13 15:58N 41°05' E 001°16'1 2.4
2017-Sep-13 15:26N 41°04' E 001°17'4 9.1
2017-Sep-13 15:00N 41°02' E 001°22'1311.7
2017-Sep-13 13:53N 40°58' E 001°38'1911.9
2017-Sep-13 12:19N 40°51' E 002°01'412.3
2017-Sep-13 12:00N 40°49' E 002°06'612.2
2017-Sep-13 11:30N 40°47' E 002°13'612.4
2017-Sep-13 11:00N 40°45' E 002°21'612.4
2017-Sep-13 10:30N 40°43' E 002°28'612.1
2017-Sep-13 10:00N 40°41' E 002°36'612.1
2017-Sep-13 09:30N 40°39' E 002°43'612.0
2017-Sep-13 09:00N 40°37' E 002°51'612.0
2017-Sep-13 08:30N 40°35' E 002°58'611.9
2017-Sep-13 08:00N 40°32' E 003°06'612.1
2017-Sep-13 07:30N 40°30' E 003°13'612.5
2017-Sep-13 07:00N 40°28' E 003°21'157 5.5
2017-Sep-12 02:16N 38°30' E 005°35'0 0.7
2017-Sep-12 02:00N 38°30' E 005°35'1 0.9
2017-Sep-12 00:29N 38°29' E 005°34'1 1.0
2017-Sep-12 00:00N 38°28' E 005°33'  
Track history (hours):
 
Tides and Currents Weather Stations Pressure Air Temp Water Temp Dewpoint Dewpoint Depression Visibility Wind Speed Wind Dir Waves Ship Positions

Agios Nikolaos IV

Last reported at 2017-Sep-19 00:17 UTC. Time now 2017-Sep-23 07:45 UTC.
Position N 35°59' W 005°27'.

Length 185 m; draft 11.3 m.

Type: Ship. MMSI: 248480000.

Date/timePositionNaut miles runAvg speedWind from/ knotsBaromVisibWave heightAir tempDewpointWater temp
2017-Sep-19 00:17N 35°59' W 005°27'310.5
2017-Sep-19 00:00N 36°00' W 005°24'5 9.8
2017-Sep-18 23:30N 36°02' W 005°18'5 9.9
2017-Sep-18 23:00N 36°04' W 005°12'20711.1
2017-Sep-18 04:21N 37°10' W 001°09'712.3
2017-Sep-18 03:50N 37°14' W 001°03'812.3
2017-Sep-18 03:12N 37°19' W 000°55'212.3
2017-Sep-18 03:00N 37°21' W 000°53'612.4
2017-Sep-18 02:30N 37°25' W 000°47'612.5
2017-Sep-18 02:00N 37°29' W 000°41'612.5
2017-Sep-18 01:30N 37°33' W 000°35'612.3
2017-Sep-18 01:00N 37°38' W 000°30'612.4
2017-Sep-18 00:30N 37°43' W 000°26'15312.3
2017-Sep-17 12:02N 39°58' E 001°09'212.5
2017-Sep-17 11:54N 39°59' E 001°10'512.6
2017-Sep-17 11:30N 40°04' E 001°13'712.6
2017-Sep-17 10:59N 40°09' E 001°17'612.7
2017-Sep-17 10:30N 40°15' E 001°20'612.7
2017-Sep-17 10:00N 40°21' E 001°24'612.6
2017-Sep-17 09:30N 40°26' E 001°27'612.6
2017-Sep-17 09:00N 40°32' E 001°30'612.6
2017-Sep-17 08:30N 40°38' E 001°34'611.1
2017-Sep-17 08:00N 40°43' E 001°36'  
2017-Sep-14 13:03N 41°06' E 001°14'0 0.0
2017-Sep-14 12:57N 41°06' E 001°14'2 3.0
2017-Sep-14 12:09N 41°04' E 001°16'0 1.3
2017-Sep-14 11:56N 41°04' E 001°16'0 0.3
2017-Sep-14 11:28N 41°05' E 001°16'0 0.0
2017-Sep-13 23:46N 41°05' E 001°16'0 0.0
2017-Sep-13 23:16N 41°05' E 001°16'0 0.0
2017-Sep-13 22:34N 41°05' E 001°16'0 0.1
2017-Sep-13 22:28N 41°05' E 001°16'0 0.0
2017-Sep-13 19:58N 41°05' E 001°16'0 0.0
2017-Sep-13 16:52N 41°05' E 001°16'0 0.0
2017-Sep-13 16:28N 41°05' E 001°16'0 0.0
2017-Sep-13 15:58N 41°05' E 001°16'1 2.4
2017-Sep-13 15:26N 41°04' E 001°17'4 9.1
2017-Sep-13 15:00N 41°02' E 001°22'1311.7
2017-Sep-13 13:53N 40°58' E 001°38'1911.9
2017-Sep-13 12:19N 40°51' E 002°01'412.3
2017-Sep-13 12:00N 40°49' E 002°06'612.2
2017-Sep-13 11:30N 40°47' E 002°13'612.4
2017-Sep-13 11:00N 40°45' E 002°21'612.4
2017-Sep-13 10:30N 40°43' E 002°28'612.1
2017-Sep-13 10:00N 40°41' E 002°36'612.1
2017-Sep-13 09:30N 40°39' E 002°43'612.0
2017-Sep-13 09:00N 40°37' E 002°51'612.0
2017-Sep-13 08:30N 40°35' E 002°58'611.9
2017-Sep-13 08:00N 40°32' E 003°06'612.1
2017-Sep-13 07:30N 40°30' E 003°13'612.5
2017-Sep-13 07:00N 40°28' E 003°21'157 5.5
2017-Sep-12 02:16N 38°30' E 005°35'0 0.7
2017-Sep-12 02:00N 38°30' E 005°35'1 0.9
2017-Sep-12 00:29N 38°29' E 005°34'1 1.0
2017-Sep-12 00:00N 38°28' E 005°33'  

Dump ship's entire track history